sensor_id;sensor_type;location;lat;lon;timestamp;P1;durP1;ratioP1;P2;durP2;ratioP2
58472;SDS011;44775;51.564;5.460;2023-10-08T00:00:12;9.20;;;5.00;;
58472;SDS011;44775;51.564;5.460;2023-10-08T00:02:57;9.00;;;4.50;;
58472;SDS011;44775;51.564;5.460;2023-10-08T00:05:22;11.50;;;4.80;;
58472;SDS011;44775;51.564;5.460;2023-10-08T00:07:47;12.30;;;4.97;;
58472;SDS011;44775;51.564;5.460;2023-10-08T00:10:13;10.93;;;4.80;;
58472;SDS011;44775;51.564;5.460;2023-10-08T00:12:38;12.10;;;5.28;;
58472;SDS011;44775;51.564;5.460;2023-10-08T00:15:04;10.75;;;4.95;;
58472;SDS011;44775;51.564;5.460;2023-10-08T00:17:32;12.07;;;4.97;;
58472;SDS011;44775;51.564;5.460;2023-10-08T00:19:57;14.63;;;4.95;;
58472;SDS011;44775;51.564;5.460;2023-10-08T00:22:25;12.77;;;5.40;;
58472;SDS011;44775;51.564;5.460;2023-10-08T00:24:51;11.23;;;5.82;;
58472;SDS011;44775;51.564;5.460;2023-10-08T00:27:22;12.48;;;5.15;;
58472;SDS011;44775;51.564;5.460;2023-10-08T00:29:48;13.43;;;5.43;;
58472;SDS011;44775;51.564;5.460;2023-10-08T00:32:13;12.77;;;5.47;;
58472;SDS011;44775;51.564;5.460;2023-10-08T00:34:40;12.82;;;5.05;;
58472;SDS011;44775;51.564;5.460;2023-10-08T00:37:07;15.93;;;4.88;;
58472;SDS011;44775;51.564;5.460;2023-10-08T00:39:34;12.20;;;5.47;;
58472;SDS011;44775;51.564;5.460;2023-10-08T00:42:03;13.32;;;5.47;;
58472;SDS011;44775;51.564;5.460;2023-10-08T00:44:31;12.23;;;5.43;;
58472;SDS011;44775;51.564;5.460;2023-10-08T00:47:00;13.80;;;5.40;;
58472;SDS011;44775;51.564;5.460;2023-10-08T00:49:26;14.00;;;5.38;;
58472;SDS011;44775;51.564;5.460;2023-10-08T00:52:01;11.65;;;5.10;;
58472;SDS011;44775;51.564;5.460;2023-10-08T00:54:37;14.95;;;5.10;;
58472;SDS011;44775;51.564;5.460;2023-10-08T00:57:22;13.18;;;5.40;;
58472;SDS011;44775;51.564;5.460;2023-10-08T00:59:52;13.00;;;5.47;;
58472;SDS011;44775;51.564;5.460;2023-10-08T01:02:26;12.82;;;4.95;;
58472;SDS011;44775;51.564;5.460;2023-10-08T01:05:11;12.60;;;6.15;;
58472;SDS011;44775;51.564;5.460;2023-10-08T01:08:00;12.02;;;5.47;;
58472;SDS011;44775;51.564;5.460;2023-10-08T01:10:31;11.98;;;5.45;;
58472;SDS011;44775;51.564;5.460;2023-10-08T01:12:56;12.50;;;5.68;;
58472;SDS011;44775;51.564;5.460;2023-10-08T01:15:30;13.80;;;6.20;;
58472;SDS011;44775;51.564;5.460;2023-10-08T01:18:00;14.07;;;6.65;;
58472;SDS011;44775;51.564;5.460;2023-10-08T01:20:26;14.73;;;6.07;;
58472;SDS011;44775;51.564;5.460;2023-10-08T01:22:58;17.65;;;5.93;;
58472;SDS011;44775;51.564;5.460;2023-10-08T01:25:34;12.65;;;5.88;;
58472;SDS011;44775;51.564;5.460;2023-10-08T01:28:00;14.80;;;6.32;;
58472;SDS011;44775;51.564;5.460;2023-10-08T01:30:30;15.70;;;6.05;;
58472;SDS011;44775;51.564;5.460;2023-10-08T01:33:01;16.50;;;6.10;;
58472;SDS011;44775;51.564;5.460;2023-10-08T01:35:27;12.57;;;6.05;;
58472;SDS011;44775;51.564;5.460;2023-10-08T01:37:56;15.57;;;5.95;;
58472;SDS011;44775;51.564;5.460;2023-10-08T01:40:21;14.80;;;6.60;;
58472;SDS011;44775;51.564;5.460;2023-10-08T01:42:50;15.25;;;6.32;;
58472;SDS011;44775;51.564;5.460;2023-10-08T01:45:16;12.90;;;6.25;;
58472;SDS011;44775;51.564;5.460;2023-10-08T01:47:43;15.63;;;6.72;;
58472;SDS011;44775;51.564;5.460;2023-10-08T01:50:08;14.88;;;6.53;;
58472;SDS011;44775;51.564;5.460;2023-10-08T01:52:46;13.07;;;6.70;;
58472;SDS011;44775;51.564;5.460;2023-10-08T01:55:12;15.80;;;6.85;;
58472;SDS011;44775;51.564;5.460;2023-10-08T01:57:42;11.82;;;6.30;;
58472;SDS011;44775;51.564;5.460;2023-10-08T02:00:08;14.93;;;6.30;;
58472;SDS011;44775;51.564;5.460;2023-10-08T02:02:34;17.35;;;6.95;;
58472;SDS011;44775;51.564;5.460;2023-10-08T02:04:59;13.48;;;6.93;;
58472;SDS011;44775;51.564;5.460;2023-10-08T02:07:25;15.38;;;6.80;;
58472;SDS011;44775;51.564;5.460;2023-10-08T02:09:50;11.85;;;6.45;;
58472;SDS011;44775;51.564;5.460;2023-10-08T02:12:15;22.83;;;7.38;;
58472;SDS011;44775;51.564;5.460;2023-10-08T02:14:41;17.13;;;6.80;;
58472;SDS011;44775;51.564;5.460;2023-10-08T02:17:06;18.08;;;6.90;;
58472;SDS011;44775;51.564;5.460;2023-10-08T02:19:34;18.88;;;7.82;;
58472;SDS011;44775;51.564;5.460;2023-10-08T02:22:02;14.32;;;7.13;;
58472;SDS011;44775;51.564;5.460;2023-10-08T02:24:30;14.45;;;7.20;;
58472;SDS011;44775;51.564;5.460;2023-10-08T02:26:56;13.27;;;6.75;;
58472;SDS011;44775;51.564;5.460;2023-10-08T02:29:23;16.67;;;6.85;;
58472;SDS011;44775;51.564;5.460;2023-10-08T02:31:50;17.63;;;7.43;;
58472;SDS011;44775;51.564;5.460;2023-10-08T02:34:15;15.00;;;7.10;;
58472;SDS011;44775;51.564;5.460;2023-10-08T02:36:40;14.60;;;7.28;;
58472;SDS011;44775;51.564;5.460;2023-10-08T02:39:06;20.90;;;7.38;;
58472;SDS011;44775;51.564;5.460;2023-10-08T02:41:46;15.55;;;6.97;;
58472;SDS011;44775;51.564;5.460;2023-10-08T02:44:12;17.05;;;7.47;;
58472;SDS011;44775;51.564;5.460;2023-10-08T02:46:45;14.10;;;6.85;;
58472;SDS011;44775;51.564;5.460;2023-10-08T02:49:13;14.65;;;7.15;;
58472;SDS011;44775;51.564;5.460;2023-10-08T02:51:44;14.77;;;7.05;;
58472;SDS011;44775;51.564;5.460;2023-10-08T02:54:10;16.05;;;7.50;;
58472;SDS011;44775;51.564;5.460;2023-10-08T02:56:49;17.38;;;7.15;;
58472;SDS011;44775;51.564;5.460;2023-10-08T02:59:17;17.33;;;7.68;;
58472;SDS011;44775;51.564;5.460;2023-10-08T03:01:43;15.60;;;7.28;;
58472;SDS011;44775;51.564;5.460;2023-10-08T03:04:08;14.55;;;7.35;;
58472;SDS011;44775;51.564;5.460;2023-10-08T03:06:46;15.98;;;7.43;;
58472;SDS011;44775;51.564;5.460;2023-10-08T03:09:19;18.60;;;7.40;;
58472;SDS011;44775;51.564;5.460;2023-10-08T03:11:46;16.05;;;7.10;;
58472;SDS011;44775;51.564;5.460;2023-10-08T03:14:13;15.52;;;8.10;;
58472;SDS011;44775;51.564;5.460;2023-10-08T03:16:46;15.27;;;7.63;;
58472;SDS011;44775;51.564;5.460;2023-10-08T03:19:20;14.07;;;6.68;;
58472;SDS011;44775;51.564;5.460;2023-10-08T03:21:50;15.75;;;7.32;;
58472;SDS011;44775;51.564;5.460;2023-10-08T03:24:22;14.18;;;7.45;;
58472;SDS011;44775;51.564;5.460;2023-10-08T03:27:00;16.90;;;7.63;;
58472;SDS011;44775;51.564;5.460;2023-10-08T03:29:35;15.15;;;7.25;;
58472;SDS011;44775;51.564;5.460;2023-10-08T03:32:10;16.25;;;7.35;;
58472;SDS011;44775;51.564;5.460;2023-10-08T03:34:44;18.50;;;8.05;;
58472;SDS011;44775;51.564;5.460;2023-10-08T03:37:11;14.90;;;7.85;;
58472;SDS011;44775;51.564;5.460;2023-10-08T03:39:44;14.45;;;7.55;;
58472;SDS011;44775;51.564;5.460;2023-10-08T03:42:22;17.63;;;8.15;;
58472;SDS011;44775;51.564;5.460;2023-10-08T03:44:48;18.10;;;8.23;;
58472;SDS011;44775;51.564;5.460;2023-10-08T03:47:20;17.67;;;8.43;;
58472;SDS011;44775;51.564;5.460;2023-10-08T03:49:50;16.42;;;7.85;;
58472;SDS011;44775;51.564;5.460;2023-10-08T03:52:16;19.65;;;8.05;;
58472;SDS011;44775;51.564;5.460;2023-10-08T03:54:51;15.43;;;7.63;;
58472;SDS011;44775;51.564;5.460;2023-10-08T03:57:35;18.42;;;8.10;;
58472;SDS011;44775;51.564;5.460;2023-10-08T04:00:07;18.13;;;7.57;;
58472;SDS011;44775;51.564;5.460;2023-10-08T04:02:43;17.50;;;8.35;;
58472;SDS011;44775;51.564;5.460;2023-10-08T04:05:19;19.27;;;8.18;;
58472;SDS011;44775;51.564;5.460;2023-10-08T04:07:52;15.07;;;8.40;;
58472;SDS011;44775;51.564;5.460;2023-10-08T04:10:25;17.52;;;8.07;;
58472;SDS011;44775;51.564;5.460;2023-10-08T04:13:03;14.90;;;8.00;;
58472;SDS011;44775;51.564;5.460;2023-10-08T04:15:28;19.23;;;8.23;;
58472;SDS011;44775;51.564;5.460;2023-10-08T04:17:54;16.30;;;8.23;;
58472;SDS011;44775;51.564;5.460;2023-10-08T04:20:20;14.68;;;8.30;;
58472;SDS011;44775;51.564;5.460;2023-10-08T04:23:05;15.27;;;7.90;;
58472;SDS011;44775;51.564;5.460;2023-10-08T04:25:38;20.77;;;8.18;;
58472;SDS011;44775;51.564;5.460;2023-10-08T04:28:04;19.88;;;8.73;;
58472;SDS011;44775;51.564;5.460;2023-10-08T04:30:33;15.73;;;8.65;;
58472;SDS011;44775;51.564;5.460;2023-10-08T04:33:00;24.75;;;8.52;;
58472;SDS011;44775;51.564;5.460;2023-10-08T04:35:34;19.50;;;8.60;;
58472;SDS011;44775;51.564;5.460;2023-10-08T04:38:20;19.38;;;8.60;;
58472;SDS011;44775;51.564;5.460;2023-10-08T04:40:53;16.55;;;8.00;;
58472;SDS011;44775;51.564;5.460;2023-10-08T04:43:21;19.02;;;8.63;;
58472;SDS011;44775;51.564;5.460;2023-10-08T04:45:56;16.08;;;8.27;;
58472;SDS011;44775;51.564;5.460;2023-10-08T04:48:23;20.25;;;8.57;;
58472;SDS011;44775;51.564;5.460;2023-10-08T04:50:50;16.40;;;7.78;;
58472;SDS011;44775;51.564;5.460;2023-10-08T04:53:24;14.07;;;8.32;;
58472;SDS011;44775;51.564;5.460;2023-10-08T04:56:06;17.48;;;8.70;;
58472;SDS011;44775;51.564;5.460;2023-10-08T04:58:38;19.42;;;8.20;;
58472;SDS011;44775;51.564;5.460;2023-10-08T05:01:06;20.02;;;8.30;;
58472;SDS011;44775;51.564;5.460;2023-10-08T05:03:52;17.30;;;8.38;;
58472;SDS011;44775;51.564;5.460;2023-10-08T05:06:25;24.77;;;9.45;;
58472;SDS011;44775;51.564;5.460;2023-10-08T05:09:12;21.00;;;8.88;;
58472;SDS011;44775;51.564;5.460;2023-10-08T05:11:44;22.08;;;9.35;;
58472;SDS011;44775;51.564;5.460;2023-10-08T05:14:12;15.93;;;8.38;;
58472;SDS011;44775;51.564;5.460;2023-10-08T05:16:54;16.45;;;8.95;;
58472;SDS011;44775;51.564;5.460;2023-10-08T05:19:56;17.58;;;9.63;;
58472;SDS011;44775;51.564;5.460;2023-10-08T05:22:41;25.23;;;9.88;;
58472;SDS011;44775;51.564;5.460;2023-10-08T05:25:10;18.30;;;9.23;;
58472;SDS011;44775;51.564;5.460;2023-10-08T05:27:58;19.83;;;9.40;;
58472;SDS011;44775;51.564;5.460;2023-10-08T05:30:27;16.05;;;9.15;;
58472;SDS011;44775;51.564;5.460;2023-10-08T05:32:56;23.33;;;9.65;;
58472;SDS011;44775;51.564;5.460;2023-10-08T05:35:28;21.85;;;9.50;;
58472;SDS011;44775;51.564;5.460;2023-10-08T05:38:06;21.20;;;9.80;;
58472;SDS011;44775;51.564;5.460;2023-10-08T05:40:51;21.27;;;9.95;;
58472;SDS011;44775;51.564;5.460;2023-10-08T05:43:28;18.52;;;9.43;;
58472;SDS011;44775;51.564;5.460;2023-10-08T05:46:06;22.63;;;10.15;;
58472;SDS011;44775;51.564;5.460;2023-10-08T05:48:47;17.58;;;9.65;;
58472;SDS011;44775;51.564;5.460;2023-10-08T05:51:27;20.85;;;9.80;;
58472;SDS011;44775;51.564;5.460;2023-10-08T05:54:10;19.23;;;9.63;;
58472;SDS011;44775;51.564;5.460;2023-10-08T05:56:50;18.45;;;10.27;;
58472;SDS011;44775;51.564;5.460;2023-10-08T05:59:31;27.98;;;10.35;;
58472;SDS011;44775;51.564;5.460;2023-10-08T06:02:29;20.98;;;10.15;;
58472;SDS011;44775;51.564;5.460;2023-10-08T06:04:59;23.75;;;10.50;;
58472;SDS011;44775;51.564;5.460;2023-10-08T06:10:16;18.52;;;10.15;;
58472;SDS011;44775;51.564;5.460;2023-10-08T06:12:57;20.38;;;9.85;;
58472;SDS011;44775;51.564;5.460;2023-10-08T06:18:13;22.42;;;10.32;;
58472;SDS011;44775;51.564;5.460;2023-10-08T06:20:43;19.90;;;9.55;;
58472;SDS011;44775;51.564;5.460;2023-10-08T06:23:12;18.63;;;9.55;;
58472;SDS011;44775;51.564;5.460;2023-10-08T06:25:43;20.35;;;10.23;;
58472;SDS011;44775;51.564;5.460;2023-10-08T06:28:16;20.27;;;10.32;;
58472;SDS011;44775;51.564;5.460;2023-10-08T06:30:45;22.95;;;9.82;;
58472;SDS011;44775;51.564;5.460;2023-10-08T06:33:11;21.38;;;10.52;;
58472;SDS011;44775;51.564;5.460;2023-10-08T06:35:36;18.40;;;10.10;;
58472;SDS011;44775;51.564;5.460;2023-10-08T06:38:02;22.10;;;10.20;;
58472;SDS011;44775;51.564;5.460;2023-10-08T06:40:40;22.02;;;10.23;;
58472;SDS011;44775;51.564;5.460;2023-10-08T06:43:05;25.48;;;10.80;;
58472;SDS011;44775;51.564;5.460;2023-10-08T06:45:37;24.17;;;10.38;;
58472;SDS011;44775;51.564;5.460;2023-10-08T06:48:04;20.90;;;10.73;;
58472;SDS011;44775;51.564;5.460;2023-10-08T06:50:31;19.23;;;10.02;;
58472;SDS011;44775;51.564;5.460;2023-10-08T06:53:01;20.25;;;10.77;;
58472;SDS011;44775;51.564;5.460;2023-10-08T06:55:31;18.45;;;10.07;;
58472;SDS011;44775;51.564;5.460;2023-10-08T06:57:59;23.63;;;10.75;;
58472;SDS011;44775;51.564;5.460;2023-10-08T07:00:25;21.45;;;9.23;;
58472;SDS011;44775;51.564;5.460;2023-10-08T07:03:03;13.38;;;7.07;;
58472;SDS011;44775;51.564;5.460;2023-10-08T07:05:29;14.20;;;7.13;;
58472;SDS011;44775;51.564;5.460;2023-10-08T07:07:54;15.57;;;8.05;;
58472;SDS011;44775;51.564;5.460;2023-10-08T07:10:20;24.00;;;10.43;;
58472;SDS011;44775;51.564;5.460;2023-10-08T07:12:48;21.90;;;10.68;;
58472;SDS011;44775;51.564;5.460;2023-10-08T07:15:14;20.48;;;9.75;;
58472;SDS011;44775;51.564;5.460;2023-10-08T07:17:48;18.83;;;9.25;;
58472;SDS011;44775;51.564;5.460;2023-10-08T07:20:16;11.98;;;6.78;;
58472;SDS011;44775;51.564;5.460;2023-10-08T07:22:41;12.93;;;7.72;;
58472;SDS011;44775;51.564;5.460;2023-10-08T07:25:08;22.50;;;10.35;;
58472;SDS011;44775;51.564;5.460;2023-10-08T07:27:34;26.00;;;10.57;;
58472;SDS011;44775;51.564;5.460;2023-10-08T07:30:03;18.98;;;10.32;;
58472;SDS011;44775;51.564;5.460;2023-10-08T07:32:38;12.07;;;7.20;;
58472;SDS011;44775;51.564;5.460;2023-10-08T07:35:06;14.07;;;6.93;;
58472;SDS011;44775;51.564;5.460;2023-10-08T07:37:51;21.52;;;10.13;;
58472;SDS011;44775;51.564;5.460;2023-10-08T07:40:19;22.38;;;11.23;;
58472;SDS011;44775;51.564;5.460;2023-10-08T07:42:45;20.63;;;10.27;;
58472;SDS011;44775;51.564;5.460;2023-10-08T07:45:16;22.52;;;10.50;;
58472;SDS011;44775;51.564;5.460;2023-10-08T07:47:42;21.30;;;10.23;;
58472;SDS011;44775;51.564;5.460;2023-10-08T07:50:08;20.63;;;10.15;;
58472;SDS011;44775;51.564;5.460;2023-10-08T07:52:38;20.42;;;11.10;;
58472;SDS011;44775;51.564;5.460;2023-10-08T07:55:03;20.23;;;10.48;;
58472;SDS011;44775;51.564;5.460;2023-10-08T07:57:32;19.70;;;10.35;;
58472;SDS011;44775;51.564;5.460;2023-10-08T07:59:58;20.85;;;10.63;;
58472;SDS011;44775;51.564;5.460;2023-10-08T08:02:43;19.17;;;10.48;;
58472;SDS011;44775;51.564;5.460;2023-10-08T08:05:08;21.90;;;10.32;;
58472;SDS011;44775;51.564;5.460;2023-10-08T08:07:33;19.63;;;10.40;;
58472;SDS011;44775;51.564;5.460;2023-10-08T08:09:58;22.45;;;10.10;;
58472;SDS011;44775;51.564;5.460;2023-10-08T08:12:25;17.65;;;10.55;;
58472;SDS011;44775;51.564;5.460;2023-10-08T08:17:18;22.47;;;10.87;;
58472;SDS011;44775;51.564;5.460;2023-10-08T08:19:44;20.52;;;10.57;;
58472;SDS011;44775;51.564;5.460;2023-10-08T08:22:15;14.98;;;7.75;;
58472;SDS011;44775;51.564;5.460;2023-10-08T08:24:52;24.65;;;11.80;;
58472;SDS011;44775;51.564;5.460;2023-10-08T08:27:20;11.93;;;5.80;;
58472;SDS011;44775;51.564;5.460;2023-10-08T08:29:56;15.65;;;9.13;;
58472;SDS011;44775;51.564;5.460;2023-10-08T08:32:34;24.95;;;12.20;;
58472;SDS011;44775;51.564;5.460;2023-10-08T08:35:10;27.23;;;11.98;;
58472;SDS011;44775;51.564;5.460;2023-10-08T08:37:36;28.75;;;12.70;;
58472;SDS011;44775;51.564;5.460;2023-10-08T08:40:03;22.05;;;11.73;;
58472;SDS011;44775;51.564;5.460;2023-10-08T08:42:50;19.80;;;10.23;;
58472;SDS011;44775;51.564;5.460;2023-10-08T08:45:21;28.90;;;13.38;;
58472;SDS011;44775;51.564;5.460;2023-10-08T08:47:47;29.27;;;11.95;;
58472;SDS011;44775;51.564;5.460;2023-10-08T08:50:13;29.08;;;11.85;;
58472;SDS011;44775;51.564;5.460;2023-10-08T08:52:39;22.55;;;11.02;;
58472;SDS011;44775;51.564;5.460;2023-10-08T08:55:09;27.95;;;11.95;;
58472;SDS011;44775;51.564;5.460;2023-10-08T08:57:43;27.95;;;12.10;;
58472;SDS011;44775;51.564;5.460;2023-10-08T09:00:13;23.77;;;11.20;;
58472;SDS011;44775;51.564;5.460;2023-10-08T09:02:40;28.17;;;11.77;;
58472;SDS011;44775;51.564;5.460;2023-10-08T09:05:06;28.95;;;12.10;;
58472;SDS011;44775;51.564;5.460;2023-10-08T09:08:03;22.40;;;10.40;;
58472;SDS011;44775;51.564;5.460;2023-10-08T09:10:30;23.60;;;9.55;;
58472;SDS011;44775;51.564;5.460;2023-10-08T09:13:02;15.82;;;8.52;;
58472;SDS011;44775;51.564;5.460;2023-10-08T09:15:33;23.13;;;10.02;;
58472;SDS011;44775;51.564;5.460;2023-10-08T09:17:58;22.73;;;11.40;;
58472;SDS011;44775;51.564;5.460;2023-10-08T09:20:25;23.25;;;10.70;;
58472;SDS011;44775;51.564;5.460;2023-10-08T09:23:05;23.77;;;12.48;;
58472;SDS011;44775;51.564;5.460;2023-10-08T09:25:38;23.05;;;11.55;;
58472;SDS011;44775;51.564;5.460;2023-10-08T09:28:05;19.92;;;11.55;;
58472;SDS011;44775;51.564;5.460;2023-10-08T09:33:02;29.00;;;13.05;;
58472;SDS011;44775;51.564;5.460;2023-10-08T09:35:29;17.20;;;9.05;;
58472;SDS011;44775;51.564;5.460;2023-10-08T09:37:56;20.83;;;10.40;;
58472;SDS011;44775;51.564;5.460;2023-10-08T09:40:23;28.55;;;14.70;;
58472;SDS011;44775;51.564;5.460;2023-10-08T09:42:50;18.15;;;9.32;;
58472;SDS011;44775;51.564;5.460;2023-10-08T09:45:17;20.70;;;8.73;;
58472;SDS011;44775;51.564;5.460;2023-10-08T09:47:44;14.27;;;7.47;;
58472;SDS011;44775;51.564;5.460;2023-10-08T09:50:16;29.10;;;12.18;;
58472;SDS011;44775;51.564;5.460;2023-10-08T09:53:01;22.30;;;10.88;;
58472;SDS011;44775;51.564;5.460;2023-10-08T09:55:36;30.42;;;12.85;;
58472;SDS011;44775;51.564;5.460;2023-10-08T09:58:09;22.52;;;10.55;;
58472;SDS011;44775;51.564;5.460;2023-10-08T10:00:39;25.20;;;11.00;;
58472;SDS011;44775;51.564;5.460;2023-10-08T10:03:07;23.98;;;11.48;;
58472;SDS011;44775;51.564;5.460;2023-10-08T10:05:34;23.33;;;11.15;;
58472;SDS011;44775;51.564;5.460;2023-10-08T10:08:03;26.70;;;12.48;;
58472;SDS011;44775;51.564;5.460;2023-10-08T10:10:34;32.60;;;12.07;;
58472;SDS011;44775;51.564;5.460;2023-10-08T10:13:06;27.50;;;13.00;;
58472;SDS011;44775;51.564;5.460;2023-10-08T10:15:37;28.30;;;11.90;;
58472;SDS011;44775;51.564;5.460;2023-10-08T10:18:12;28.95;;;13.38;;
58472;SDS011;44775;51.564;5.460;2023-10-08T10:20:39;31.88;;;13.50;;
58472;SDS011;44775;51.564;5.460;2023-10-08T10:23:33;31.55;;;13.00;;
58472;SDS011;44775;51.564;5.460;2023-10-08T10:31:52;26.77;;;11.73;;
58472;SDS011;44775;51.564;5.460;2023-10-08T10:34:24;27.60;;;13.15;;
58472;SDS011;44775;51.564;5.460;2023-10-08T10:36:52;18.25;;;9.18;;
58472;SDS011;44775;51.564;5.460;2023-10-08T10:39:24;24.75;;;11.23;;
58472;SDS011;44775;51.564;5.460;2023-10-08T10:41:58;20.35;;;9.65;;
58472;SDS011;44775;51.564;5.460;2023-10-08T10:44:27;19.55;;;9.10;;
58472;SDS011;44775;51.564;5.460;2023-10-08T10:46:57;20.15;;;9.70;;
58472;SDS011;44775;51.564;5.460;2023-10-08T10:49:45;19.67;;;9.90;;
58472;SDS011;44775;51.564;5.460;2023-10-08T10:55:01;19.83;;;10.85;;
58472;SDS011;44775;51.564;5.460;2023-10-08T10:57:44;23.27;;;10.85;;
58472;SDS011;44775;51.564;5.460;2023-10-08T11:00:20;26.13;;;12.45;;
58472;SDS011;44775;51.564;5.460;2023-10-08T11:02:58;20.92;;;9.23;;
58472;SDS011;44775;51.564;5.460;2023-10-08T11:05:31;22.17;;;11.90;;
58472;SDS011;44775;51.564;5.460;2023-10-08T11:08:02;20.38;;;10.80;;
58472;SDS011;44775;51.564;5.460;2023-10-08T11:10:38;12.15;;;7.43;;
58472;SDS011;44775;51.564;5.460;2023-10-08T11:13:08;23.23;;;11.75;;
58472;SDS011;44775;51.564;5.460;2023-10-08T11:15:39;15.93;;;8.00;;
58472;SDS011;44775;51.564;5.460;2023-10-08T11:18:14;21.58;;;11.75;;
58472;SDS011;44775;51.564;5.460;2023-10-08T11:20:40;21.73;;;11.18;;
58472;SDS011;44775;51.564;5.460;2023-10-08T11:23:09;19.60;;;10.32;;
58472;SDS011;44775;51.564;5.460;2023-10-08T11:25:58;18.45;;;9.13;;
58472;SDS011;44775;51.564;5.460;2023-10-08T11:31:00;12.48;;;6.97;;
58472;SDS011;44775;51.564;5.460;2023-10-08T11:33:33;15.63;;;8.60;;
58472;SDS011;44775;51.564;5.460;2023-10-08T11:36:03;12.85;;;7.47;;
58472;SDS011;44775;51.564;5.460;2023-10-08T11:38:41;15.73;;;8.48;;
58472;SDS011;44775;51.564;5.460;2023-10-08T11:41:10;14.00;;;7.28;;
58472;SDS011;44775;51.564;5.460;2023-10-08T11:43:45;10.05;;;5.63;;
58472;SDS011;44775;51.564;5.460;2023-10-08T11:46:11;10.85;;;5.68;;
58472;SDS011;44775;51.564;5.460;2023-10-08T11:48:39;12.00;;;6.50;;
58472;SDS011;44775;51.564;5.460;2023-10-08T11:51:08;13.15;;;6.90;;
58472;SDS011;44775;51.564;5.460;2023-10-08T11:56:02;8.98;;;5.13;;
58472;SDS011;44775;51.564;5.460;2023-10-08T11:58:27;16.80;;;8.77;;
58472;SDS011;44775;51.564;5.460;2023-10-08T12:01:02;13.55;;;8.32;;
58472;SDS011;44775;51.564;5.460;2023-10-08T12:03:28;12.75;;;6.53;;
58472;SDS011;44775;51.564;5.460;2023-10-08T12:05:54;17.88;;;10.15;;
58472;SDS011;44775;51.564;5.460;2023-10-08T12:08:24;21.90;;;10.25;;
58472;SDS011;44775;51.564;5.460;2023-10-08T12:10:52;20.70;;;10.10;;
58472;SDS011;44775;51.564;5.460;2023-10-08T12:13:21;21.90;;;10.82;;
58472;SDS011;44775;51.564;5.460;2023-10-08T12:18:30;22.55;;;10.70;;
58472;SDS011;44775;51.564;5.460;2023-10-08T12:20:55;17.70;;;10.05;;
58472;SDS011;44775;51.564;5.460;2023-10-08T12:23:21;17.80;;;9.60;;
58472;SDS011;44775;51.564;5.460;2023-10-08T12:25:54;13.48;;;7.05;;
58472;SDS011;44775;51.564;5.460;2023-10-08T12:28:24;18.20;;;9.10;;
58472;SDS011;44775;51.564;5.460;2023-10-08T12:30:52;18.02;;;8.93;;
58472;SDS011;44775;51.564;5.460;2023-10-08T12:33:18;14.05;;;6.65;;
58472;SDS011;44775;51.564;5.460;2023-10-08T12:35:49;12.27;;;6.88;;
58472;SDS011;44775;51.564;5.460;2023-10-08T12:38:18;12.45;;;6.43;;
58472;SDS011;44775;51.564;5.460;2023-10-08T12:40:47;16.45;;;8.75;;
58472;SDS011;44775;51.564;5.460;2023-10-08T12:43:17;16.52;;;9.23;;
58472;SDS011;44775;51.564;5.460;2023-10-08T12:45:55;14.02;;;8.40;;
58472;SDS011;44775;51.564;5.460;2023-10-08T12:48:22;17.95;;;9.15;;
58472;SDS011;44775;51.564;5.460;2023-10-08T12:50:51;12.60;;;7.15;;
58472;SDS011;44775;51.564;5.460;2023-10-08T12:53:24;11.20;;;6.45;;
58472;SDS011;44775;51.564;5.460;2023-10-08T12:56:05;9.95;;;6.03;;
58472;SDS011;44775;51.564;5.460;2023-10-08T12:58:35;16.27;;;9.88;;
58472;SDS011;44775;51.564;5.460;2023-10-08T13:01:07;10.68;;;7.05;;
58472;SDS011;44775;51.564;5.460;2023-10-08T13:03:34;14.88;;;8.75;;
58472;SDS011;44775;51.564;5.460;2023-10-08T13:06:06;10.20;;;5.97;;
58472;SDS011;44775;51.564;5.460;2023-10-08T13:08:36;13.98;;;8.68;;
58472;SDS011;44775;51.564;5.460;2023-10-08T13:11:01;13.02;;;7.55;;
58472;SDS011;44775;51.564;5.460;2023-10-08T13:13:27;11.27;;;6.85;;
58472;SDS011;44775;51.564;5.460;2023-10-08T13:15:53;15.95;;;9.73;;
58472;SDS011;44775;51.564;5.460;2023-10-08T13:20:47;20.77;;;11.93;;
58472;SDS011;44775;51.564;5.460;2023-10-08T13:23:13;11.98;;;7.18;;
58472;SDS011;44775;51.564;5.460;2023-10-08T13:25:38;15.32;;;8.43;;
58472;SDS011;44775;51.564;5.460;2023-10-08T13:28:05;14.75;;;8.95;;
58472;SDS011;44775;51.564;5.460;2023-10-08T13:30:32;11.80;;;5.93;;
58472;SDS011;44775;51.564;5.460;2023-10-08T13:32:57;14.80;;;9.63;;
58472;SDS011;44775;51.564;5.460;2023-10-08T13:35:24;11.10;;;6.00;;
58472;SDS011;44775;51.564;5.460;2023-10-08T13:37:50;14.15;;;8.57;;
58472;SDS011;44775;51.564;5.460;2023-10-08T13:40:15;22.30;;;11.43;;
58472;SDS011;44775;51.564;5.460;2023-10-08T13:42:41;17.08;;;9.88;;
58472;SDS011;44775;51.564;5.460;2023-10-08T13:45:07;19.77;;;11.65;;
58472;SDS011;44775;51.564;5.460;2023-10-08T13:47:34;23.45;;;11.88;;
58472;SDS011;44775;51.564;5.460;2023-10-08T13:49:59;19.08;;;12.52;;
58472;SDS011;44775;51.564;5.460;2023-10-08T13:52:25;23.98;;;11.93;;
58472;SDS011;44775;51.564;5.460;2023-10-08T13:54:51;24.10;;;14.13;;
58472;SDS011;44775;51.564;5.460;2023-10-08T13:57:20;24.25;;;13.68;;
58472;SDS011;44775;51.564;5.460;2023-10-08T13:59:49;23.95;;;14.82;;
58472;SDS011;44775;51.564;5.460;2023-10-08T14:02:15;26.95;;;14.57;;
58472;SDS011;44775;51.564;5.460;2023-10-08T14:07:10;26.25;;;15.05;;
58472;SDS011;44775;51.564;5.460;2023-10-08T14:09:43;25.77;;;14.07;;
58472;SDS011;44775;51.564;5.460;2023-10-08T14:12:10;17.52;;;10.52;;
58472;SDS011;44775;51.564;5.460;2023-10-08T14:14:36;15.73;;;9.32;;
58472;SDS011;44775;51.564;5.460;2023-10-08T14:17:06;21.17;;;11.65;;
58472;SDS011;44775;51.564;5.460;2023-10-08T14:19:32;24.20;;;13.27;;
58472;SDS011;44775;51.564;5.460;2023-10-08T14:22:11;28.73;;;14.85;;
58472;SDS011;44775;51.564;5.460;2023-10-08T14:24:39;24.65;;;13.95;;
58472;SDS011;44775;51.564;5.460;2023-10-08T14:27:04;29.58;;;14.80;;
58472;SDS011;44775;51.564;5.460;2023-10-08T14:29:37;20.60;;;11.90;;
58472;SDS011;44775;51.564;5.460;2023-10-08T14:32:05;21.48;;;12.02;;
58472;SDS011;44775;51.564;5.460;2023-10-08T14:34:33;27.90;;;15.43;;
58472;SDS011;44775;51.564;5.460;2023-10-08T14:37:11;24.10;;;12.43;;
58472;SDS011;44775;51.564;5.460;2023-10-08T14:39:55;17.15;;;8.65;;
58472;SDS011;44775;51.564;5.460;2023-10-08T14:42:39;16.60;;;9.32;;
58472;SDS011;44775;51.564;5.460;2023-10-08T14:45:27;15.45;;;9.18;;
58472;SDS011;44775;51.564;5.460;2023-10-08T14:47:56;23.42;;;13.93;;
58472;SDS011;44775;51.564;5.460;2023-10-08T14:50:23;21.63;;;11.18;;
58472;SDS011;44775;51.564;5.460;2023-10-08T14:52:52;25.70;;;14.55;;
58472;SDS011;44775;51.564;5.460;2023-10-08T14:55:18;19.10;;;9.95;;
58472;SDS011;44775;51.564;5.460;2023-10-08T14:57:46;25.95;;;15.00;;
58472;SDS011;44775;51.564;5.460;2023-10-08T15:00:12;23.13;;;11.25;;
58472;SDS011;44775;51.564;5.460;2023-10-08T15:02:37;22.90;;;12.82;;
58472;SDS011;44775;51.564;5.460;2023-10-08T15:05:06;18.73;;;10.52;;
58472;SDS011;44775;51.564;5.460;2023-10-08T15:07:32;26.88;;;15.70;;
58472;SDS011;44775;51.564;5.460;2023-10-08T15:09:58;30.48;;;17.85;;
58472;SDS011;44775;51.564;5.460;2023-10-08T15:12:26;26.80;;;14.23;;
58472;SDS011;44775;51.564;5.460;2023-10-08T15:14:52;29.17;;;17.50;;
58472;SDS011;44775;51.564;5.460;2023-10-08T15:17:17;16.17;;;9.50;;
58472;SDS011;44775;51.564;5.460;2023-10-08T15:19:43;18.55;;;11.07;;
58472;SDS011;44775;51.564;5.460;2023-10-08T15:22:09;28.60;;;15.93;;